createdAt,value
2022-11-23T00:02:56.474Z,351.43
2022-11-23T00:06:05.526Z,359.33
2022-11-23T00:09:14.580Z,352.46
2022-11-23T00:12:20.536Z,350.14
2022-11-23T00:15:27.277Z,358.76
2022-11-23T00:18:35.877Z,375.15
2022-11-23T00:21:42.847Z,369.68
2022-11-23T00:24:48.781Z,370.14
2022-11-23T00:27:55.540Z,367.40
2022-11-23T00:31:02.117Z,365.82
2022-11-23T00:34:11.446Z,370.64
2022-11-23T00:37:19.409Z,380.49
2022-11-23T00:40:26.165Z,379.89
2022-11-23T00:43:33.154Z,379.04
2022-11-23T00:46:39.873Z,370.39
2022-11-23T00:49:48.402Z,374.58
2022-11-23T00:52:57.664Z,383.20
2022-11-23T00:56:03.868Z,376.09
2022-11-23T00:59:10.721Z,398.16
2022-11-23T01:02:17.473Z,384.85
2022-11-23T01:05:26.772Z,386.40
2022-11-23T01:08:32.698Z,416.68
2022-11-23T01:11:39.394Z,445.43
2022-11-23T01:14:45.375Z,418.46
2022-11-23T01:17:52.099Z,416.10
2022-11-23T01:21:03.741Z,418.14
2022-11-23T01:24:16.062Z,352.54
2022-11-23T01:27:22.130Z,358.18
2022-11-23T01:30:30.678Z,348.04
2022-11-23T01:33:37.378Z,344.49
2022-11-23T01:36:47.679Z,350.35
2022-11-23T01:39:53.695Z,352.15
2022-11-23T01:43:04.010Z,358.30
2022-11-23T01:46:12.213Z,361.68
2022-11-23T01:49:19.712Z,357.09
2022-11-23T01:52:30.224Z,360.87
2022-11-23T01:55:39.822Z,356.85
2022-11-23T01:58:54.967Z,359.89
2022-11-23T02:02:02.214Z,364.68
2022-11-23T02:05:10.826Z,367.84
2022-11-23T02:08:23.051Z,371.88
2022-11-23T02:11:29.116Z,367.25
2022-11-23T02:14:36.401Z,367.97
2022-11-23T02:17:42.543Z,380.83
2022-11-23T02:20:50.188Z,382.63
2022-11-23T02:24:12.943Z,375.18
2022-11-23T02:27:24.559Z,370.98
2022-11-23T02:30:35.006Z,366.81
2022-11-23T02:33:42.074Z,377.84
2022-11-23T02:36:52.177Z,379.52
2022-11-23T02:40:07.630Z,373.14
2022-11-23T02:46:37.892Z,375.90
2022-11-23T02:49:45.958Z,379.12
2022-11-23T02:52:52.634Z,372.87
2022-11-23T02:55:58.485Z,383.59
2022-11-23T02:59:08.166Z,382.41
2022-11-23T03:02:14.369Z,375.93
2022-11-23T03:05:21.467Z,371.99
2022-11-23T03:08:30.898Z,371.00
2022-11-23T03:11:39.602Z,371.02
2022-11-23T03:14:48.204Z,367.20
2022-11-23T03:17:57.076Z,371.53
2022-11-23T03:21:07.146Z,369.67
2022-11-23T03:24:16.500Z,374.68
2022-11-23T03:27:24.322Z,360.90
2022-11-23T03:30:33.977Z,352.15
2022-11-23T03:33:41.886Z,347.08
2022-11-23T03:36:49.131Z,354.65
2022-11-23T03:39:55.209Z,358.49
2022-11-23T03:43:01.988Z,366.41
2022-11-23T03:46:10.734Z,371.31
2022-11-23T03:49:17.590Z,379.71
2022-11-23T03:52:24.107Z,388.70
2022-11-23T03:55:31.166Z,379.72
2022-11-23T03:58:37.882Z,389.40
2022-11-23T04:01:50.814Z,385.21
2022-11-23T04:05:01.506Z,378.92
2022-11-23T04:08:28.550Z,352.76
2022-11-23T04:11:35.845Z,348.75
2022-11-23T04:14:42.960Z,380.22
2022-11-23T04:17:51.741Z,370.80
2022-11-23T04:20:58.747Z,378.11
2022-11-23T04:24:04.965Z,376.78
2022-11-23T04:27:14.536Z,367.55
2022-11-23T04:30:22.278Z,374.02
2022-11-23T04:33:32.020Z,377.45
2022-11-23T04:36:39.032Z,375.86
2022-11-23T04:39:48.234Z,358.92
2022-11-23T04:43:02.109Z,350.00
2022-11-23T04:46:13.757Z,345.61
2022-11-23T04:49:23.149Z,348.28
2022-11-23T04:52:30.180Z,351.62
2022-11-23T04:55:37.117Z,357.04
2022-11-23T04:58:45.011Z,361.02
2022-11-23T05:01:52.422Z,367.86
2022-11-23T05:05:20.962Z,369.69
2022-11-23T05:08:26.954Z,358.29
2022-11-23T05:11:42.163Z,340.45
2022-11-23T05:14:49.531Z,327.72
2022-11-23T05:18:06.574Z,318.48
2022-11-23T05:21:16.987Z,316.89
2022-11-23T05:24:23.979Z,310.20
2022-11-23T05:27:46.005Z,315.79
2022-11-23T05:30:54.093Z,306.01
2022-11-23T05:34:00.135Z,309.62
2022-11-23T05:37:19.995Z,312.20
2022-11-23T05:40:48.128Z,331.30
2022-11-23T05:43:55.600Z,335.87
2022-11-23T05:47:05.786Z,354.98
2022-11-23T05:50:14.377Z,359.62
2022-11-23T05:53:28.284Z,366.39
2022-11-23T05:56:42.351Z,370.10
2022-11-23T06:00:02.157Z,371.56
2022-11-23T06:03:19.329Z,372.87
2022-11-23T06:06:25.775Z,381.26
2022-11-23T06:09:36.422Z,390.26
2022-11-23T06:12:46.780Z,402.87
2022-11-23T06:15:57.320Z,449.95
2022-11-23T06:19:10.780Z,468.87
2022-11-23T06:22:22.559Z,444.63
2022-11-23T06:25:38.953Z,434.14
2022-11-23T06:29:04.332Z,432.80
2022-11-23T06:32:10.342Z,413.27
2022-11-23T06:35:17.877Z,418.54
2022-11-23T06:38:27.154Z,432.82
2022-11-23T06:41:51.939Z,455.38
2022-11-23T06:44:57.963Z,394.53
2022-11-23T06:48:04.898Z,382.13
2022-11-23T06:51:14.306Z,339.36
2022-11-23T06:54:24.607Z,327.44
2022-11-23T06:57:36.031Z,323.21
2022-11-23T07:00:43.382Z,321.02
2022-11-23T07:03:50.365Z,338.62
2022-11-23T07:07:06.566Z,332.78
2022-11-23T07:10:21.093Z,353.48
2022-11-23T07:13:37.807Z,369.04
2022-11-23T07:16:43.946Z,396.28
2022-11-23T07:20:04.880Z,383.72
2022-11-23T07:23:25.955Z,356.81
2022-11-23T07:26:48.974Z,370.08
2022-11-23T07:30:14.698Z,415.60
2022-11-23T07:33:35.587Z,474.07
2022-11-23T07:37:01.840Z,471.81
2022-11-23T07:40:25.107Z,408.31
2022-11-23T07:43:45.930Z,385.92
2022-11-23T07:47:10.380Z,394.44
2022-11-23T07:50:32.492Z,443.54
2022-11-23T07:53:39.597Z,516.41
2022-11-23T07:56:45.547Z,465.78
2022-11-23T07:59:52.263Z,425.31
2022-11-23T08:06:28.337Z,399.95
2022-11-23T08:09:34.344Z,327.71
2022-11-23T08:12:41.173Z,314.77
2022-11-23T08:15:53.277Z,357.83
2022-11-23T08:19:03.597Z,360.35
2022-11-23T08:22:12.370Z,395.95
2022-11-23T08:25:22.399Z,391.83
2022-11-23T08:28:28.474Z,398.78
2022-11-23T08:31:35.322Z,373.31
2022-11-23T08:34:46.903Z,341.71
2022-11-23T08:37:53.824Z,344.23
2022-11-23T08:41:02.520Z,317.61
2022-11-23T08:44:12.431Z,313.08
2022-11-23T08:47:19.837Z,304.33
2022-11-23T08:50:29.485Z,310.30
2022-11-23T08:53:36.778Z,316.41
2022-11-23T08:56:43.531Z,340.18
2022-11-23T08:59:49.486Z,365.65
2022-11-23T09:02:58.465Z,378.04
2022-11-23T09:06:07.644Z,373.43
2022-11-23T09:09:14.706Z,354.57
2022-11-23T09:12:20.921Z,342.83
2022-11-23T09:15:27.696Z,361.45
2022-11-23T09:18:35.678Z,353.14
2022-11-23T09:21:45.238Z,322.03
2022-11-23T09:24:51.103Z,319.64
2022-11-23T09:28:02.160Z,332.63
2022-11-23T09:31:08.995Z,343.34
2022-11-23T09:34:16.516Z,314.36
2022-11-23T09:37:26.149Z,314.57
2022-11-23T09:40:39.432Z,318.39
2022-11-23T09:44:05.065Z,311.55
2022-11-23T09:47:46.702Z,311.01
2022-11-23T09:50:59.624Z,322.39
2022-11-23T09:54:27.801Z,340.12
2022-11-23T09:57:39.229Z,328.64
2022-11-23T10:00:53.656Z,351.66
2022-11-23T10:04:01.504Z,328.77
2022-11-23T10:07:35.735Z,321.02
2022-11-23T10:10:55.808Z,336.23
2022-11-23T10:14:29.900Z,329.97
2022-11-23T10:18:03.046Z,363.77
2022-11-23T10:21:30.172Z,361.39
2022-11-23T10:24:45.527Z,385.70
2022-11-23T10:28:03.337Z,395.83
2022-11-23T10:31:19.635Z,348.52
2022-11-23T10:34:49.672Z,313.83
2022-11-23T10:38:03.759Z,367.15
2022-11-23T10:41:16.021Z,376.97
2022-11-23T10:44:37.129Z,359.85
2022-11-23T10:47:52.283Z,371.36
2022-11-23T10:51:22.686Z,345.79
2022-11-23T10:54:35.317Z,343.60
2022-11-23T10:57:48.324Z,339.97
2022-11-23T11:01:03.876Z,306.30
2022-11-23T11:04:27.779Z,305.84
2022-11-23T11:07:35.194Z,264.72
2022-11-23T11:10:50.310Z,298.72
2022-11-23T11:14:08.670Z,285.35
2022-11-23T11:17:30.819Z,252.56
2022-11-23T11:20:39.547Z,263.46
2022-11-23T11:23:49.733Z,273.93
2022-11-23T11:27:04.538Z,277.44
2022-11-23T11:30:25.597Z,293.48
2022-11-23T11:33:49.715Z,280.01
2022-11-23T11:37:09.135Z,277.42
2022-11-23T11:40:29.079Z,272.87
2022-11-23T11:43:44.015Z,228.92
2022-11-23T11:47:00.971Z,235.49
2022-11-23T11:50:31.389Z,228.78
2022-11-23T11:53:52.485Z,233.43
2022-11-23T11:57:07.926Z,227.17
2022-11-23T12:00:20.824Z,238.03
2022-11-23T12:03:44.487Z,229.70
2022-11-23T12:07:07.338Z,231.46
2022-11-23T12:10:21.888Z,239.32
2022-11-23T12:13:35.110Z,242.11
2022-11-23T12:20:45.393Z,274.33
2022-11-23T12:24:13.885Z,272.79
2022-11-23T12:27:48.259Z,257.66
2022-11-23T12:31:13.565Z,242.26
2022-11-23T12:34:51.017Z,234.36
2022-11-23T12:38:20.743Z,241.36
2022-11-23T12:41:45.276Z,294.80
2022-11-23T12:45:20.442Z,277.53
2022-11-23T12:48:49.041Z,277.00
2022-11-23T12:52:13.452Z,260.17
2022-11-23T12:55:35.995Z,250.51
2022-11-23T12:58:51.042Z,250.87
2022-11-23T13:02:06.924Z,244.85
2022-11-23T13:06:15.088Z,238.04
2022-11-23T13:09:50.539Z,243.90
2022-11-23T13:13:40.700Z,254.01
2022-11-23T13:17:24.358Z,237.88
2022-11-23T13:21:07.294Z,224.55
2022-11-23T13:24:35.278Z,229.02
2022-11-23T13:27:57.464Z,241.92
2022-11-23T13:31:25.646Z,259.11
2022-11-23T13:34:51.326Z,279.63
2022-11-23T13:38:27.387Z,282.58
2022-11-23T13:42:03.673Z,251.28
2022-11-23T13:45:28.863Z,255.12
2022-11-23T13:49:00.050Z,264.00
2022-11-23T13:52:36.574Z,285.30
2022-11-23T13:55:43.604Z,253.87
2022-11-23T13:58:57.573Z,247.44
2022-11-23T14:02:31.218Z,237.74
2022-11-23T14:06:01.963Z,246.67
2022-11-23T14:09:25.211Z,251.39
2022-11-23T14:12:46.028Z,245.30
2022-11-23T14:16:03.100Z,241.39
2022-11-23T14:19:31.435Z,233.74
2022-11-23T14:23:03.364Z,239.57
2022-11-23T14:26:36.647Z,261.38
2022-11-23T14:30:22.838Z,288.96
2022-11-23T14:33:45.859Z,355.49
2022-11-23T14:37:05.860Z,268.57
2022-11-23T14:40:33.837Z,243.15
2022-11-23T14:43:45.824Z,240.29
2022-11-23T14:47:06.647Z,277.37
2022-11-23T14:50:27.735Z,290.28
2022-11-23T14:53:46.722Z,298.42
2022-11-23T14:57:00.857Z,262.30
2022-11-23T15:00:28.950Z,281.60
2022-11-23T15:03:50.308Z,297.92
2022-11-23T15:07:07.008Z,301.12
2022-11-23T15:10:33.912Z,265.45
2022-11-23T15:13:48.626Z,285.41
2022-11-23T15:16:57.285Z,280.09
2022-11-23T15:20:07.362Z,313.93
2022-11-23T15:23:25.242Z,308.96
2022-11-23T15:26:48.037Z,310.78
2022-11-23T15:29:58.584Z,320.72
2022-11-23T15:33:14.455Z,393.21
2022-11-23T15:36:28.228Z,510.74
2022-11-23T15:39:35.723Z,407.72
2022-11-23T15:42:42.736Z,332.66
2022-11-23T15:46:09.087Z,290.33
2022-11-23T15:49:20.856Z,266.51
2022-11-23T15:52:30.259Z,276.69
2022-11-23T15:55:37.769Z,279.73
2022-11-23T15:58:54.454Z,296.56
2022-11-23T16:02:03.353Z,297.93
2022-11-23T16:05:22.510Z,272.33
2022-11-23T16:08:28.851Z,277.48
2022-11-23T16:11:39.023Z,238.79
2022-11-23T16:14:45.061Z,356.94
2022-11-23T16:17:52.177Z,409.21
2022-11-23T16:21:05.732Z,360.67
2022-11-23T16:24:26.086Z,249.74
2022-11-23T16:27:32.218Z,262.09
2022-11-23T16:30:42.853Z,284.17
2022-11-23T16:33:48.855Z,293.57
2022-11-23T16:36:59.488Z,278.17
2022-11-23T16:40:05.522Z,298.23
2022-11-23T16:43:15.038Z,323.22
2022-11-23T16:46:21.003Z,359.93
2022-11-23T16:49:27.959Z,382.68
2022-11-23T16:52:39.550Z,388.12
2022-11-23T16:55:47.276Z,466.67
2022-11-23T16:58:55.492Z,453.12
2022-11-23T17:02:02.474Z,457.00
2022-11-23T17:05:17.586Z,427.65
2022-11-23T17:08:27.047Z,456.96
2022-11-23T17:11:33.279Z,407.36
2022-11-23T17:14:42.879Z,383.17
2022-11-23T17:17:51.797Z,358.27
2022-11-23T17:20:59.235Z,287.80
2022-11-23T17:24:09.003Z,559.87
2022-11-23T17:27:21.670Z,435.14
2022-11-23T17:30:27.877Z,352.35
2022-11-23T17:33:34.784Z,317.80
2022-11-23T17:36:42.768Z,322.60
2022-11-23T17:39:53.494Z,262.37
2022-11-23T17:43:00.509Z,255.96
2022-11-23T17:46:08.016Z,248.30
2022-11-23T17:49:18.361Z,241.51
2022-11-23T17:52:27.453Z,244.14
2022-11-23T17:55:36.438Z,245.85
2022-11-23T17:58:43.293Z,259.99
2022-11-23T18:01:49.420Z,279.32
2022-11-23T18:04:56.417Z,290.83
2022-11-23T18:08:02.466Z,278.22
2022-11-23T18:11:12.500Z,281.76
2022-11-23T18:14:19.484Z,307.88
2022-11-23T18:17:26.519Z,276.70
2022-11-23T18:20:32.604Z,319.70
2022-11-23T18:23:40.200Z,356.88
2022-11-23T18:26:49.182Z,322.22
2022-11-23T18:29:56.187Z,300.08
2022-11-23T18:33:02.377Z,292.10
2022-11-23T18:36:13.059Z,286.42
2022-11-23T18:39:19.096Z,330.33
2022-11-23T18:42:28.633Z,321.01
2022-11-23T18:46:10.464Z,265.60
2022-11-23T18:49:17.353Z,256.69
2022-11-23T18:52:23.331Z,269.58
2022-11-23T18:55:30.459Z,295.97
2022-11-23T18:58:37.144Z,292.88
2022-11-23T19:01:46.566Z,290.55
2022-11-23T19:04:52.609Z,282.90
2022-11-23T19:08:05.777Z,287.88
2022-11-23T19:11:17.736Z,273.16
2022-11-23T19:14:25.266Z,263.85
2022-11-23T19:17:34.378Z,256.50
2022-11-23T19:20:42.892Z,271.77
2022-11-23T19:23:54.079Z,292.33
2022-11-23T19:27:01.006Z,278.23
2022-11-23T19:30:09.622Z,256.37
2022-11-23T19:33:20.049Z,242.75
2022-11-23T19:36:28.763Z,269.20
2022-11-23T19:39:36.398Z,289.34
2022-11-23T19:42:42.882Z,258.87
2022-11-23T19:45:57.811Z,251.81
2022-11-23T19:49:08.608Z,254.43
2022-11-23T19:52:15.715Z,285.02
2022-11-23T19:55:22.113Z,281.86
2022-11-23T19:58:31.271Z,283.33
2022-11-23T20:01:37.950Z,288.88
2022-11-23T20:04:47.574Z,282.32
2022-11-23T20:07:54.451Z,280.41
2022-11-23T20:11:01.426Z,289.77
2022-11-23T20:14:08.050Z,286.60
2022-11-23T20:17:15.948Z,279.71
2022-11-23T20:20:24.605Z,295.70
2022-11-23T20:23:32.524Z,288.99
2022-11-23T20:26:39.342Z,288.56
2022-11-23T20:29:46.962Z,297.94
2022-11-23T20:32:54.078Z,308.96
2022-11-23T20:36:17.115Z,307.83
2022-11-23T20:39:23.676Z,311.46
2022-11-23T20:42:32.043Z,318.27
2022-11-23T20:45:38.152Z,326.09
2022-11-23T20:48:48.651Z,350.19
2022-11-23T20:51:57.365Z,325.85
2022-11-23T20:55:04.398Z,290.74
2022-11-23T20:58:10.379Z,325.29
2022-11-23T21:01:19.939Z,316.67
2022-11-23T21:04:26.300Z,315.43
2022-11-23T21:07:35.882Z,322.01
2022-11-23T21:10:54.339Z,300.84
2022-11-23T21:14:16.932Z,309.97
2022-11-23T21:17:24.228Z,292.45
2022-11-23T21:20:36.281Z,274.52
2022-11-23T21:23:49.503Z,260.63
2022-11-23T21:26:59.343Z,258.52
2022-11-23T21:30:05.852Z,252.50
2022-11-23T21:33:12.716Z,250.01
2022-11-23T21:36:18.994Z,250.05
2022-11-23T21:39:30.243Z,251.08
2022-11-23T21:42:37.444Z,248.64
2022-11-23T21:45:44.887Z,233.54
2022-11-23T21:48:50.908Z,231.32
2022-11-23T21:51:57.804Z,223.46
2022-11-23T21:55:06.585Z,222.77
2022-11-23T21:58:13.453Z,264.39
2022-11-23T22:01:23.154Z,248.12
2022-11-23T22:04:30.204Z,218.08
2022-11-23T22:07:36.914Z,222.96
2022-11-23T22:10:46.401Z,221.39
2022-11-23T22:13:58.134Z,222.97
2022-11-23T22:17:06.441Z,223.47
2022-11-23T22:20:14.648Z,240.37
2022-11-23T22:23:21.478Z,235.98
2022-11-23T22:26:30.980Z,236.91
2022-11-23T22:29:37.899Z,235.75
2022-11-23T22:32:46.279Z,227.82
2022-11-23T22:35:53.413Z,248.46
2022-11-23T22:39:02.330Z,256.83
2022-11-23T22:42:11.993Z,229.56
2022-11-23T22:45:18.254Z,223.71
2022-11-23T22:48:25.075Z,245.92
2022-11-23T22:51:33.065Z,246.48
2022-11-23T22:54:40.004Z,250.10
2022-11-23T22:57:48.584Z,258.36
2022-11-23T23:00:56.299Z,272.08
2022-11-23T23:04:04.601Z,240.73
2022-11-23T23:07:11.509Z,244.00
2022-11-23T23:10:17.667Z,268.84
2022-11-23T23:13:27.207Z,272.00
2022-11-23T23:16:33.686Z,250.49
2022-11-23T23:19:40.656Z,256.62
2022-11-23T23:22:47.273Z,231.92
2022-11-23T23:25:57.233Z,228.96
2022-11-23T23:29:05.840Z,231.27
2022-11-23T23:32:13.745Z,239.88
2022-11-23T23:35:19.970Z,236.95
2022-11-23T23:38:30.140Z,233.61
2022-11-23T23:41:36.453Z,235.33
2022-11-23T23:44:45.862Z,232.20
2022-11-23T23:47:51.780Z,237.90
2022-11-23T23:50:59.125Z,242.73
2022-11-23T23:54:05.132Z,233.98
2022-11-23T23:57:12.706Z,240.24
